Terminal Aerodrome Forecast
Issued by NWS Cleveland, OH

Home | Current Version | Previous Version | Text Only | Print | Product List | Glossary On
Versions: 1 2 3 4 5 6 7 8 9 10 11 12 13 14 15 16 17 18
000
FTUS41 KCLE 220700 AAA
TAFERI
TAF AMD
KERI 220752Z 2208/2306 VRB03KT P6SM SCT008 OVC025
      TEMPO 2208/2212 5SM BR OVC008
     FM221300 VRB03KT P6SM BKN015 OVC025
     FM221700 01008KT P6SM BKN035
     FM230000 VRB03KT P6SM FEW040 BKN100=

USA.gov is the U.S. government's official web portal to all federal, state and local government web resources and services.